Time;durP1;ratioP1;P1;durP2;ratioP2;P2;SDS_P1;SDS_P2;PMS_P1;PMS_P2;Temp;Humidity;BMP_temperature;BMP_pressure;BME280_temperature;BME280_humidity;BME280_pressure;Samples;Min_cycle;Max_cycle;Signal;HPM_P1;HPM_P2
2022/11/22 06:31:18;;;;;;;4.87;3.80;;;;;;;0.49;100.00;99256.66;1760871;80;21168;-37
2022/11/22 06:33:45;;;;;;;4.10;3.60;;;;;;;0.46;100.00;99251.00;1737721;80;21422;-47
2022/11/22 06:36:24;;;;;;;4.83;3.62;;;;;;;0.46;100.00;99246.27;1718432;81;21446;-45
2022/11/22 06:38:57;;;;;;;6.25;4.30;;;;;;;0.45;100.00;99251.84;1720378;81;21129;-45
2022/11/22 06:41:26;;;;;;;6.42;3.77;;;;;;;0.45;100.00;99254.83;1753657;79;20994;-45
2022/11/22 06:43:55;;;;;;;4.53;3.70;;;;;;;0.45;100.00;99266.41;1759963;79;21485;-45
2022/11/22 06:46:22;;;;;;;7.33;4.22;;;;;;;0.41;100.00;99260.76;1758273;79;21050;-46
2022/11/22 06:48:49;;;;;;;4.70;3.75;;;;;;;0.39;100.00;99267.13;1749173;80;21511;-45
2022/11/22 06:51:20;;;;;;;4.97;3.70;;;;;;;0.39;100.00;99273.98;1735964;80;21014;-39
2022/11/22 06:53:47;;;;;;;4.45;3.67;;;;;;;0.39;100.00;99272.70;1737037;81;21393;-45
2022/11/22 06:56:21;;;;;;;4.80;4.05;;;;;;;0.38;100.00;99268.39;1719454;81;21041;-45
2022/11/22 06:58:50;;;;;;;4.83;4.30;;;;;;;0.36;100.00;99277.79;1718862;81;22522;-38
2022/11/22 07:01:21;;;;;;;7.12;4.30;;;;;;;0.33;100.00;99276.41;1731442;81;21979;-46
2022/11/22 07:03:56;;;;;;;4.50;3.97;;;;;;;0.34;100.00;99287.15;1733786;81;21132;-37
2022/11/22 07:06:20;;;;;;;4.37;3.70;;;;;;;0.32;100.00;99269.53;1715118;81;21051;-37
2022/11/22 07:08:48;;;;;;;4.53;3.92;;;;;;;0.30;100.00;99267.34;1737633;81;21023;-46
2022/11/22 07:11:20;;;;;;;5.65;4.60;;;;;;;0.29;100.00;99270.34;1759165;79;21099;-46
2022/11/22 07:13:48;;;;;;;5.83;4.22;;;;;;;0.29;100.00;99267.77;1754738;78;20925;-39
2022/11/22 07:16:19;;;;;;;5.25;4.20;;;;;;;0.27;100.00;99265.55;1710785;81;20995;-47
2022/11/22 07:18:47;;;;;;;5.85;4.72;;;;;;;0.28;100.00;99270.28;1733363;81;21033;-45
2022/11/22 07:21:19;;;;;;;4.75;4.10;;;;;;;0.30;100.00;99272.08;1751930;79;21087;-39
2022/11/22 07:23:48;;;;;;;5.97;4.15;;;;;;;0.32;100.00;99278.12;1751439;80;20959;-42
2022/11/22 07:26:15;;;;;;;6.58;4.90;;;;;;;0.36;100.00;99276.08;1721022;81;21091;-37
2022/11/22 07:28:42;;;;;;;5.60;4.65;;;;;;;0.39;100.00;99273.56;1735477;81;22021;-38
2022/11/22 07:31:11;;;;;;;4.40;3.95;;;;;;;0.43;100.00;99275.81;1736943;81;21047;-44
2022/11/22 07:33:38;;;;;;;6.08;4.85;;;;;;;0.47;100.00;99277.64;1735354;80;20989;-36
2022/11/22 07:36:16;;;;;;;4.28;3.87;;;;;;;0.47;100.00;99276.34;1735800;80;21109;-38
2022/11/22 07:38:48;;;;;;;4.75;4.15;;;;;;;0.48;100.00;99271.65;1706973;82;21047;-50
2022/11/22 07:41:16;;;;;;;5.70;4.20;;;;;;;0.46;100.00;99275.45;1734730;81;21499;-37
2022/11/22 07:43:43;;;;;;;6.10;4.60;;;;;;;0.48;100.00;99287.95;1732079;81;22074;-38
2022/11/22 09:03:06;;;;;;;10.08;6.37;;;;;;;0.71;99.35;99350.72;1773058;79;21587;-37
2022/11/22 09:05:32;;;;;;;6.58;5.37;;;;;;;0.72;99.36;99349.45;1775552;79;21045;-38
2022/11/22 09:08:00;;;;;;;6.92;5.40;;;;;;;0.70;98.35;99348.98;1783908;78;21018;-38
2022/11/22 09:10:26;;;;;;;7.42;5.83;;;;;;;0.70;98.87;99348.98;1800308;78;21004;-38
2022/11/22 09:12:53;;;;;;;7.10;5.47;;;;;;;0.72;98.58;99353.32;1780401;78;21061;-38
2022/11/22 09:15:19;;;;;;;7.78;6.28;;;;;;;0.74;98.55;99357.21;1795063;78;21435;-47
2022/11/22 09:17:47;;;;;;;7.22;5.20;;;;;;;0.79;99.14;99350.47;1797787;77;21041;-37
2022/11/22 09:20:16;;;;;;;8.33;6.40;;;;;;;0.86;99.37;99351.06;1785253;78;21336;-38
2022/11/22 09:22:45;;;;;;;6.75;6.05;;;;;;;0.90;99.48;99347.73;1817827;77;21051;-37
2022/11/22 09:25:12;;;;;;;7.33;5.55;;;;;;;0.95;99.70;99338.84;1758124;80;21018;-38
2022/11/22 09:27:40;;;;;;;8.35;6.67;;;;;;;0.96;99.41;99333.71;1798006;78;21004;-37
2022/11/22 09:30:09;;;;;;;6.33;5.45;;;;;;;0.95;99.15;99342.28;1790674;77;21039;-37
2022/11/22 09:32:35;;;;;;;5.80;5.03;;;;;;;0.92;98.84;99347.77;1817423;77;22000;-48
2022/11/22 09:35:04;;;;;;;6.17;5.20;;;;;;;0.86;98.96;99345.05;1818468;77;20989;-46
2022/11/22 09:37:31;;;;;;;7.97;6.15;;;;;;;0.85;99.55;99345.89;1812748;77;21796;-47
2022/11/22 09:39:59;;;;;;;8.15;6.53;;;;;;;0.83;99.64;99348.44;1822076;77;21075;-37
2022/11/22 09:42:38;;;;;;;7.12;6.37;;;;;;;0.77;99.32;99345.30;1812449;77;21040;-37
2022/11/22 09:45:48;;;;;;;6.87;6.03;;;;;;;0.70;99.44;99337.39;1781968;77;21394;-37
2022/11/22 09:48:26;;;;;;;6.30;5.47;;;;;;;0.63;99.66;99349.64;1819444;76;21103;-46
2022/11/22 09:51:12;;;;;;;6.97;5.62;;;;;;;0.58;99.39;99336.69;1823375;77;21949;-36
2022/11/22 09:54:00;;;;;;;7.67;5.22;;;;;;;0.55;99.70;99341.73;1802543;77;21341;-37
2022/11/22 09:56:27;;;;;;;6.58;4.87;;;;;;;0.56;99.88;99356.34;1738048;80;21041;-37
2022/11/22 09:59:18;;;;;;;6.12;5.53;;;;;;;0.55;98.58;99343.45;1737564;80;20972;-46
2022/11/22 10:02:12;;;;;;;5.15;4.22;;;;;;;0.51;98.60;99352.36;1735639;80;21081;-47
2022/11/22 10:04:47;;;;;;;5.20;4.30;;;;;;;0.50;98.17;99357.06;1688621;82;21047;-37
2022/11/22 12:36:44;;;;;;;6.90;5.15;;;;;;;0.90;98.60;99367.47;1713342;81;21418;-49
2022/11/22 12:39:22;;;;;;;6.58;4.75;;;;;;;0.89;98.12;99366.61;1684488;82;21037;-50
2022/11/22 12:42:08;;;;;;;7.08;4.53;;;;;;;0.86;98.03;99371.67;1664226;83;21006;-51
2022/11/22 12:44:41;;;;;;;7.87;4.20;;;;;;;0.85;98.35;99374.22;1683429;84;21207;-51
2022/11/22 12:47:16;;;;;;;6.22;4.28;;;;;;;0.83;97.67;99374.19;1700770;82;21049;-48
2022/11/22 12:49:56;;;;;;;5.65;4.40;;;;;;;0.82;97.99;99375.45;1720497;82;21060;-46
2022/11/22 12:52:48;;;;;;;5.12;4.03;;;;;;;0.81;97.77;99374.55;1684518;82;21120;-44
2022/11/22 12:55:25;;;;;;;5.40;3.98;;;;;;;0.80;96.98;99386.97;1671313;83;21076;-51
2022/11/22 12:58:22;;;;;;;8.33;5.15;;;;;;;0.79;96.58;99400.27;1705410;82;21568;-44
2022/11/22 13:01:09;;;;;;;5.05;3.95;;;;;;;0.77;96.72;99406.23;1717510;82;21096;-44
2022/11/22 13:04:01;;;;;;;6.33;4.87;;;;;;;0.78;96.63;99413.11;1719561;82;21089;-44
2022/11/22 13:06:44;;;;;;;;;;;;;;;0.76;96.59;99427.67;1694603;82;21039;-50
2022/11/22 13:09:19;;;;;;;5.70;4.28;;;;;;;0.74;96.66;99422.88;1690884;83;20172;-49
2022/11/22 13:12:16;;;;;;;7.33;4.83;;;;;;;0.69;96.80;99412.45;1638038;83;21089;-49
2022/11/22 13:14:53;;;;;;;5.70;4.12;;;;;;;0.67;97.06;99401.25;1688836;84;21081;-43
2022/11/22 13:17:31;;;;;;;4.90;3.75;;;;;;;0.67;97.63;99414.55;1689227;83;21053;-49
